sensor_id;sensor_type;location;lat;lon;timestamp;P1;durP1;ratioP1;P2;durP2;ratioP2
32172;SDS011;18679;45.190;5.722;2024-01-15T00:02:44;25.33;;;9.65;;
32172;SDS011;18679;45.190;5.722;2024-01-15T00:05:45;25.88;;;10.45;;
32172;SDS011;18679;45.190;5.722;2024-01-15T00:08:46;22.33;;;9.10;;
32172;SDS011;18679;45.190;5.722;2024-01-15T00:11:47;22.95;;;9.52;;
32172;SDS011;18679;45.190;5.722;2024-01-15T00:14:48;27.65;;;10.45;;
32172;SDS011;18679;45.190;5.722;2024-01-15T00:17:49;19.63;;;8.15;;
32172;SDS011;18679;45.190;5.722;2024-01-15T00:20:49;27.17;;;10.63;;
32172;SDS011;18679;45.190;5.722;2024-01-15T00:23:53;27.25;;;10.13;;
32172;SDS011;18679;45.190;5.722;2024-01-15T00:26:54;18.83;;;8.32;;
32172;SDS011;18679;45.190;5.722;2024-01-15T00:29:55;29.85;;;10.18;;
32172;SDS011;18679;45.190;5.722;2024-01-15T00:32:56;23.90;;;10.23;;
32172;SDS011;18679;45.190;5.722;2024-01-15T00:35:57;30.08;;;11.25;;
32172;SDS011;18679;45.190;5.722;2024-01-15T00:39:00;26.63;;;10.10;;
32172;SDS011;18679;45.190;5.722;2024-01-15T00:42:05;27.20;;;11.52;;
32172;SDS011;18679;45.190;5.722;2024-01-15T00:45:06;21.75;;;9.82;;
32172;SDS011;18679;45.190;5.722;2024-01-15T00:48:08;20.05;;;8.73;;
32172;SDS011;18679;45.190;5.722;2024-01-15T00:51:08;22.88;;;11.07;;
32172;SDS011;18679;45.190;5.722;2024-01-15T00:54:09;26.48;;;9.93;;
32172;SDS011;18679;45.190;5.722;2024-01-15T00:57:10;19.58;;;9.32;;
32172;SDS011;18679;45.190;5.722;2024-01-15T01:00:11;24.17;;;11.73;;
32172;SDS011;18679;45.190;5.722;2024-01-15T01:03:12;23.00;;;10.23;;
32172;SDS011;18679;45.190;5.722;2024-01-15T01:06:13;35.22;;;10.60;;
32172;SDS011;18679;45.190;5.722;2024-01-15T01:09:14;26.45;;;11.07;;
32172;SDS011;18679;45.190;5.722;2024-01-15T01:12:15;29.88;;;9.00;;
32172;SDS011;18679;45.190;5.722;2024-01-15T01:15:16;23.17;;;9.38;;
32172;SDS011;18679;45.190;5.722;2024-01-15T01:18:17;19.48;;;8.15;;
32172;SDS011;18679;45.190;5.722;2024-01-15T01:21:19;28.10;;;11.15;;
32172;SDS011;18679;45.190;5.722;2024-01-15T01:24:22;25.25;;;12.18;;
32172;SDS011;18679;45.190;5.722;2024-01-15T01:27:22;22.00;;;9.93;;
32172;SDS011;18679;45.190;5.722;2024-01-15T01:30:23;26.88;;;10.57;;
32172;SDS011;18679;45.190;5.722;2024-01-15T01:33:26;21.75;;;10.43;;
32172;SDS011;18679;45.190;5.722;2024-01-15T01:36:28;20.38;;;10.20;;
32172;SDS011;18679;45.190;5.722;2024-01-15T01:39:29;24.95;;;10.55;;
32172;SDS011;18679;45.190;5.722;2024-01-15T01:42:30;22.65;;;10.90;;
32172;SDS011;18679;45.190;5.722;2024-01-15T01:45:31;28.02;;;10.40;;
32172;SDS011;18679;45.190;5.722;2024-01-15T01:48:32;28.95;;;10.98;;
32172;SDS011;18679;45.190;5.722;2024-01-15T01:51:34;29.77;;;11.55;;
32172;SDS011;18679;45.190;5.722;2024-01-15T01:54:37;27.55;;;11.80;;
32172;SDS011;18679;45.190;5.722;2024-01-15T01:57:40;24.77;;;9.13;;
32172;SDS011;18679;45.190;5.722;2024-01-15T02:00:43;24.33;;;9.95;;
32172;SDS011;18679;45.190;5.722;2024-01-15T02:03:44;23.40;;;10.18;;
32172;SDS011;18679;45.190;5.722;2024-01-15T02:06:45;20.70;;;8.63;;
32172;SDS011;18679;45.190;5.722;2024-01-15T02:09:46;24.70;;;10.07;;
32172;SDS011;18679;45.190;5.722;2024-01-15T02:12:48;27.35;;;11.38;;
32172;SDS011;18679;45.190;5.722;2024-01-15T02:15:49;26.20;;;10.48;;
32172;SDS011;18679;45.190;5.722;2024-01-15T02:18:51;35.45;;;11.43;;
32172;SDS011;18679;45.190;5.722;2024-01-15T02:21:53;24.23;;;9.90;;
32172;SDS011;18679;45.190;5.722;2024-01-15T02:24:54;21.05;;;9.63;;
32172;SDS011;18679;45.190;5.722;2024-01-15T02:27:56;20.50;;;9.13;;
32172;SDS011;18679;45.190;5.722;2024-01-15T02:30:57;40.40;;;11.70;;
32172;SDS011;18679;45.190;5.722;2024-01-15T02:33:58;19.52;;;10.05;;
32172;SDS011;18679;45.190;5.722;2024-01-15T02:36:59;19.55;;;9.20;;
32172;SDS011;18679;45.190;5.722;2024-01-15T02:40:00;24.23;;;9.85;;
32172;SDS011;18679;45.190;5.722;2024-01-15T02:43:01;22.95;;;10.57;;
32172;SDS011;18679;45.190;5.722;2024-01-15T02:46:02;17.65;;;7.93;;
32172;SDS011;18679;45.190;5.722;2024-01-15T02:49:03;23.58;;;10.10;;
32172;SDS011;18679;45.190;5.722;2024-01-15T02:52:04;24.58;;;10.07;;
32172;SDS011;18679;45.190;5.722;2024-01-15T02:55:06;23.35;;;10.30;;
32172;SDS011;18679;45.190;5.722;2024-01-15T02:58:08;20.45;;;9.32;;
32172;SDS011;18679;45.190;5.722;2024-01-15T03:01:09;20.08;;;8.77;;
32172;SDS011;18679;45.190;5.722;2024-01-15T03:04:10;26.58;;;9.02;;
32172;SDS011;18679;45.190;5.722;2024-01-15T03:07:12;15.68;;;6.72;;
32172;SDS011;18679;45.190;5.722;2024-01-15T03:10:12;18.30;;;6.78;;
32172;SDS011;18679;45.190;5.722;2024-01-15T03:13:13;21.63;;;7.72;;
32172;SDS011;18679;45.190;5.722;2024-01-15T03:16:14;27.73;;;10.10;;
32172;SDS011;18679;45.190;5.722;2024-01-15T03:19:15;22.13;;;11.00;;
32172;SDS011;18679;45.190;5.722;2024-01-15T03:22:16;22.95;;;7.88;;
32172;SDS011;18679;45.190;5.722;2024-01-15T03:25:17;22.48;;;9.23;;
32172;SDS011;18679;45.190;5.722;2024-01-15T03:28:19;25.45;;;11.00;;
32172;SDS011;18679;45.190;5.722;2024-01-15T03:31:20;29.50;;;10.85;;
32172;SDS011;18679;45.190;5.722;2024-01-15T03:34:21;18.95;;;9.43;;
32172;SDS011;18679;45.190;5.722;2024-01-15T03:37:22;38.78;;;11.55;;
32172;SDS011;18679;45.190;5.722;2024-01-15T03:40:23;20.65;;;9.35;;
32172;SDS011;18679;45.190;5.722;2024-01-15T03:43:23;25.48;;;9.52;;
32172;SDS011;18679;45.190;5.722;2024-01-15T03:46:24;25.52;;;11.13;;
32172;SDS011;18679;45.190;5.722;2024-01-15T03:49:25;19.45;;;9.20;;
32172;SDS011;18679;45.190;5.722;2024-01-15T03:52:26;31.75;;;11.85;;
32172;SDS011;18679;45.190;5.722;2024-01-15T03:55:27;29.92;;;10.63;;
32172;SDS011;18679;45.190;5.722;2024-01-15T03:58:27;34.78;;;11.18;;
32172;SDS011;18679;45.190;5.722;2024-01-15T04:01:28;20.50;;;10.18;;
32172;SDS011;18679;45.190;5.722;2024-01-15T04:04:29;28.08;;;10.82;;
32172;SDS011;18679;45.190;5.722;2024-01-15T04:07:31;28.92;;;9.40;;
32172;SDS011;18679;45.190;5.722;2024-01-15T04:10:31;23.30;;;9.73;;
32172;SDS011;18679;45.190;5.722;2024-01-15T04:13:32;20.45;;;8.70;;
32172;SDS011;18679;45.190;5.722;2024-01-15T04:16:33;16.27;;;6.97;;
32172;SDS011;18679;45.190;5.722;2024-01-15T04:19:34;24.85;;;9.52;;
32172;SDS011;18679;45.190;5.722;2024-01-15T04:22:35;21.27;;;8.85;;
32172;SDS011;18679;45.190;5.722;2024-01-15T04:25:36;21.02;;;10.55;;
32172;SDS011;18679;45.190;5.722;2024-01-15T04:28:37;34.22;;;11.25;;
32172;SDS011;18679;45.190;5.722;2024-01-15T04:31:38;28.55;;;11.45;;
32172;SDS011;18679;45.190;5.722;2024-01-15T04:34:40;22.88;;;10.10;;
32172;SDS011;18679;45.190;5.722;2024-01-15T04:37:41;26.80;;;9.70;;
32172;SDS011;18679;45.190;5.722;2024-01-15T04:40:41;31.42;;;10.45;;
32172;SDS011;18679;45.190;5.722;2024-01-15T04:43:43;24.65;;;9.10;;
32172;SDS011;18679;45.190;5.722;2024-01-15T04:46:47;20.55;;;9.68;;
32172;SDS011;18679;45.190;5.722;2024-01-15T04:49:47;27.33;;;11.73;;
32172;SDS011;18679;45.190;5.722;2024-01-15T04:52:49;19.80;;;9.00;;
32172;SDS011;18679;45.190;5.722;2024-01-15T04:55:50;20.42;;;9.50;;
32172;SDS011;18679;45.190;5.722;2024-01-15T04:58:51;32.83;;;10.52;;
32172;SDS011;18679;45.190;5.722;2024-01-15T05:01:52;20.50;;;8.85;;
32172;SDS011;18679;45.190;5.722;2024-01-15T05:04:53;14.32;;;8.00;;
32172;SDS011;18679;45.190;5.722;2024-01-15T05:07:55;21.40;;;9.20;;
32172;SDS011;18679;45.190;5.722;2024-01-15T05:10:55;21.95;;;8.63;;
32172;SDS011;18679;45.190;5.722;2024-01-15T05:13:57;25.35;;;9.35;;
32172;SDS011;18679;45.190;5.722;2024-01-15T05:16:58;20.58;;;8.23;;
32172;SDS011;18679;45.190;5.722;2024-01-15T05:19:59;22.88;;;9.80;;
32172;SDS011;18679;45.190;5.722;2024-01-15T05:23:00;21.05;;;10.18;;
32172;SDS011;18679;45.190;5.722;2024-01-15T05:26:01;21.63;;;9.15;;
32172;SDS011;18679;45.190;5.722;2024-01-15T05:29:02;22.05;;;9.57;;
32172;SDS011;18679;45.190;5.722;2024-01-15T05:32:04;15.93;;;7.90;;
32172;SDS011;18679;45.190;5.722;2024-01-15T05:35:05;22.52;;;9.80;;
32172;SDS011;18679;45.190;5.722;2024-01-15T05:38:06;18.17;;;8.73;;
32172;SDS011;18679;45.190;5.722;2024-01-15T05:41:08;19.13;;;8.13;;
32172;SDS011;18679;45.190;5.722;2024-01-15T05:44:10;22.63;;;8.73;;
32172;SDS011;18679;45.190;5.722;2024-01-15T05:47:10;18.75;;;9.27;;
32172;SDS011;18679;45.190;5.722;2024-01-15T05:50:11;19.77;;;8.77;;
32172;SDS011;18679;45.190;5.722;2024-01-15T05:53:13;25.27;;;9.63;;
32172;SDS011;18679;45.190;5.722;2024-01-15T05:56:15;19.23;;;8.73;;
32172;SDS011;18679;45.190;5.722;2024-01-15T05:59:16;19.38;;;9.63;;
32172;SDS011;18679;45.190;5.722;2024-01-15T06:02:18;22.77;;;10.95;;
32172;SDS011;18679;45.190;5.722;2024-01-15T06:05:19;31.38;;;10.95;;
32172;SDS011;18679;45.190;5.722;2024-01-15T06:08:20;24.63;;;9.40;;
32172;SDS011;18679;45.190;5.722;2024-01-15T06:11:21;34.50;;;9.38;;
32172;SDS011;18679;45.190;5.722;2024-01-15T06:14:22;24.23;;;9.70;;
32172;SDS011;18679;45.190;5.722;2024-01-15T06:17:23;22.17;;;10.68;;
32172;SDS011;18679;45.190;5.722;2024-01-15T06:20:24;19.38;;;9.38;;
32172;SDS011;18679;45.190;5.722;2024-01-15T06:23:25;16.33;;;8.35;;
32172;SDS011;18679;45.190;5.722;2024-01-15T06:26:26;17.85;;;8.93;;
32172;SDS011;18679;45.190;5.722;2024-01-15T06:29:27;22.70;;;9.50;;
32172;SDS011;18679;45.190;5.722;2024-01-15T06:32:28;23.80;;;9.98;;
32172;SDS011;18679;45.190;5.722;2024-01-15T06:35:31;23.77;;;10.52;;
32172;SDS011;18679;45.190;5.722;2024-01-15T06:38:32;27.85;;;11.52;;
32172;SDS011;18679;45.190;5.722;2024-01-15T06:41:33;24.20;;;11.10;;
32172;SDS011;18679;45.190;5.722;2024-01-15T06:44:34;22.58;;;9.85;;
32172;SDS011;18679;45.190;5.722;2024-01-15T06:47:35;20.55;;;10.00;;
32172;SDS011;18679;45.190;5.722;2024-01-15T06:50:37;22.40;;;10.05;;
32172;SDS011;18679;45.190;5.722;2024-01-15T06:53:38;23.05;;;8.73;;
32172;SDS011;18679;45.190;5.722;2024-01-15T06:56:39;22.15;;;9.80;;
32172;SDS011;18679;45.190;5.722;2024-01-15T06:59:39;23.77;;;10.23;;
32172;SDS011;18679;45.190;5.722;2024-01-15T07:02:41;21.98;;;9.18;;
32172;SDS011;18679;45.190;5.722;2024-01-15T07:05:42;22.13;;;8.65;;
32172;SDS011;18679;45.190;5.722;2024-01-15T07:08:43;16.33;;;7.97;;
32172;SDS011;18679;45.190;5.722;2024-01-15T07:11:44;16.67;;;7.95;;
32172;SDS011;18679;45.190;5.722;2024-01-15T07:14:46;23.05;;;8.52;;
32172;SDS011;18679;45.190;5.722;2024-01-15T07:17:47;18.17;;;7.68;;
32172;SDS011;18679;45.190;5.722;2024-01-15T07:20:48;18.17;;;7.97;;
32172;SDS011;18679;45.190;5.722;2024-01-15T07:23:49;17.92;;;7.20;;
32172;SDS011;18679;45.190;5.722;2024-01-15T07:26:50;16.15;;;7.80;;
32172;SDS011;18679;45.190;5.722;2024-01-15T07:29:51;14.00;;;6.68;;
32172;SDS011;18679;45.190;5.722;2024-01-15T07:32:52;20.55;;;8.15;;
32172;SDS011;18679;45.190;5.722;2024-01-15T07:35:53;15.25;;;7.72;;
32172;SDS011;18679;45.190;5.722;2024-01-15T07:38:54;16.48;;;6.18;;
32172;SDS011;18679;45.190;5.722;2024-01-15T07:41:55;12.32;;;6.07;;
32172;SDS011;18679;45.190;5.722;2024-01-15T07:44:56;15.82;;;7.30;;
32172;SDS011;18679;45.190;5.722;2024-01-15T07:47:57;23.70;;;8.20;;
32172;SDS011;18679;45.190;5.722;2024-01-15T07:50:58;14.73;;;6.72;;
32172;SDS011;18679;45.190;5.722;2024-01-15T07:53:59;12.85;;;7.13;;
32172;SDS011;18679;45.190;5.722;2024-01-15T07:57:00;25.35;;;10.32;;
32172;SDS011;18679;45.190;5.722;2024-01-15T08:00:03;15.68;;;7.00;;
32172;SDS011;18679;45.190;5.722;2024-01-15T08:03:10;15.75;;;7.65;;
32172;SDS011;18679;45.190;5.722;2024-01-15T08:06:12;19.00;;;7.97;;
32172;SDS011;18679;45.190;5.722;2024-01-15T08:09:12;18.98;;;9.32;;
32172;SDS011;18679;45.190;5.722;2024-01-15T08:12:14;19.58;;;8.43;;
32172;SDS011;18679;45.190;5.722;2024-01-15T08:15:14;21.50;;;9.95;;
32172;SDS011;18679;45.190;5.722;2024-01-15T08:18:15;22.95;;;9.23;;
32172;SDS011;18679;45.190;5.722;2024-01-15T08:21:16;24.58;;;10.50;;
32172;SDS011;18679;45.190;5.722;2024-01-15T08:24:17;19.27;;;9.07;;
32172;SDS011;18679;45.190;5.722;2024-01-15T08:27:18;19.02;;;7.63;;
32172;SDS011;18679;45.190;5.722;2024-01-15T08:30:20;12.82;;;7.40;;
32172;SDS011;18679;45.190;5.722;2024-01-15T08:33:21;30.73;;;10.38;;
32172;SDS011;18679;45.190;5.722;2024-01-15T08:36:22;23.92;;;9.15;;
32172;SDS011;18679;45.190;5.722;2024-01-15T08:39:24;20.80;;;9.00;;
32172;SDS011;18679;45.190;5.722;2024-01-15T08:42:25;21.60;;;9.05;;
32172;SDS011;18679;45.190;5.722;2024-01-15T08:45:26;18.27;;;8.27;;
32172;SDS011;18679;45.190;5.722;2024-01-15T08:48:27;18.17;;;9.20;;
32172;SDS011;18679;45.190;5.722;2024-01-15T08:51:27;21.02;;;10.02;;
32172;SDS011;18679;45.190;5.722;2024-01-15T08:54:28;23.60;;;8.85;;
32172;SDS011;18679;45.190;5.722;2024-01-15T08:57:29;19.23;;;8.60;;
32172;SDS011;18679;45.190;5.722;2024-01-15T09:00:30;33.20;;;10.73;;
32172;SDS011;18679;45.190;5.722;2024-01-15T09:03:31;22.60;;;9.88;;
32172;SDS011;18679;45.190;5.722;2024-01-15T09:06:34;20.52;;;10.18;;
32172;SDS011;18679;45.190;5.722;2024-01-15T09:09:34;30.92;;;10.93;;
32172;SDS011;18679;45.190;5.722;2024-01-15T09:12:36;21.92;;;11.60;;
32172;SDS011;18679;45.190;5.722;2024-01-15T09:15:36;23.75;;;9.20;;
32172;SDS011;18679;45.190;5.722;2024-01-15T09:18:37;24.38;;;10.40;;
32172;SDS011;18679;45.190;5.722;2024-01-15T09:21:38;26.48;;;11.10;;
32172;SDS011;18679;45.190;5.722;2024-01-15T09:24:40;24.35;;;9.05;;
32172;SDS011;18679;45.190;5.722;2024-01-15T09:27:42;30.90;;;10.02;;
32172;SDS011;18679;45.190;5.722;2024-01-15T09:30:43;23.90;;;9.82;;
32172;SDS011;18679;45.190;5.722;2024-01-15T09:33:45;23.75;;;9.88;;
32172;SDS011;18679;45.190;5.722;2024-01-15T09:36:46;22.85;;;9.95;;
32172;SDS011;18679;45.190;5.722;2024-01-15T09:39:49;27.63;;;9.93;;
32172;SDS011;18679;45.190;5.722;2024-01-15T09:42:50;18.10;;;9.00;;
32172;SDS011;18679;45.190;5.722;2024-01-15T09:45:52;30.13;;;11.68;;
32172;SDS011;18679;45.190;5.722;2024-01-15T09:48:54;19.00;;;8.63;;
32172;SDS011;18679;45.190;5.722;2024-01-15T09:51:55;23.20;;;10.38;;
32172;SDS011;18679;45.190;5.722;2024-01-15T09:54:58;29.67;;;11.40;;
32172;SDS011;18679;45.190;5.722;2024-01-15T09:58:01;28.10;;;11.05;;
32172;SDS011;18679;45.190;5.722;2024-01-15T10:01:03;26.70;;;13.48;;
32172;SDS011;18679;45.190;5.722;2024-01-15T10:04:04;26.25;;;12.15;;
32172;SDS011;18679;45.190;5.722;2024-01-15T10:07:05;31.95;;;11.90;;
32172;SDS011;18679;45.190;5.722;2024-01-15T10:10:10;31.20;;;12.70;;
32172;SDS011;18679;45.190;5.722;2024-01-15T10:13:11;21.50;;;8.95;;
32172;SDS011;18679;45.190;5.722;2024-01-15T10:16:14;22.33;;;10.90;;
32172;SDS011;18679;45.190;5.722;2024-01-15T10:19:15;19.42;;;9.93;;
32172;SDS011;18679;45.190;5.722;2024-01-15T10:22:16;18.55;;;8.70;;
32172;SDS011;18679;45.190;5.722;2024-01-15T10:25:21;21.63;;;9.38;;
32172;SDS011;18679;45.190;5.722;2024-01-15T10:28:26;26.08;;;10.88;;
32172;SDS011;18679;45.190;5.722;2024-01-15T10:31:27;23.17;;;9.38;;
32172;SDS011;18679;45.190;5.722;2024-01-15T10:34:30;21.92;;;8.48;;
32172;SDS011;18679;45.190;5.722;2024-01-15T10:37:34;21.60;;;10.27;;
32172;SDS011;18679;45.190;5.722;2024-01-15T10:40:35;27.88;;;9.35;;
32172;SDS011;18679;45.190;5.722;2024-01-15T10:43:37;20.23;;;9.32;;
32172;SDS011;18679;45.190;5.722;2024-01-15T10:46:42;23.83;;;9.88;;
32172;SDS011;18679;45.190;5.722;2024-01-15T10:49:45;22.08;;;9.10;;
32172;SDS011;18679;45.190;5.722;2024-01-15T10:52:46;35.92;;;12.00;;
32172;SDS011;18679;45.190;5.722;2024-01-15T10:55:48;20.17;;;9.68;;
32172;SDS011;18679;45.190;5.722;2024-01-15T10:58:51;33.90;;;10.18;;
32172;SDS011;18679;45.190;5.722;2024-01-15T11:01:54;27.70;;;12.88;;
32172;SDS011;18679;45.190;5.722;2024-01-15T11:04:56;27.48;;;10.57;;
32172;SDS011;18679;45.190;5.722;2024-01-15T11:07:58;25.20;;;10.90;;
32172;SDS011;18679;45.190;5.722;2024-01-15T11:11:00;26.77;;;11.75;;
32172;SDS011;18679;45.190;5.722;2024-01-15T11:14:01;28.77;;;12.52;;
32172;SDS011;18679;45.190;5.722;2024-01-15T11:17:04;32.53;;;12.13;;
32172;SDS011;18679;45.190;5.722;2024-01-15T11:20:05;35.45;;;13.85;;
32172;SDS011;18679;45.190;5.722;2024-01-15T11:23:06;39.25;;;15.65;;
32172;SDS011;18679;45.190;5.722;2024-01-15T11:29:41;25.08;;;12.27;;
32172;SDS011;18679;45.190;5.722;2024-01-15T11:32:41;27.35;;;10.88;;
32172;SDS011;18679;45.190;5.722;2024-01-15T11:35:49;25.42;;;12.00;;
32172;SDS011;18679;45.190;5.722;2024-01-15T11:38:50;35.63;;;13.07;;
32172;SDS011;18679;45.190;5.722;2024-01-15T11:41:51;27.85;;;10.55;;
32172;SDS011;18679;45.190;5.722;2024-01-15T11:44:54;24.52;;;9.90;;
32172;SDS011;18679;45.190;5.722;2024-01-15T11:51:02;24.58;;;10.65;;
32172;SDS011;18679;45.190;5.722;2024-01-15T11:54:05;36.28;;;11.98;;
32172;SDS011;18679;45.190;5.722;2024-01-15T11:57:12;22.98;;;10.27;;
32172;SDS011;18679;45.190;5.722;2024-01-15T12:00:22;22.15;;;10.70;;
32172;SDS011;18679;45.190;5.722;2024-01-15T12:03:25;23.67;;;9.00;;
32172;SDS011;18679;45.190;5.722;2024-01-15T12:06:26;17.30;;;9.05;;
32172;SDS011;18679;45.190;5.722;2024-01-15T12:09:27;27.65;;;9.35;;
32172;SDS011;18679;45.190;5.722;2024-01-15T12:12:37;23.33;;;10.07;;
32172;SDS011;18679;45.190;5.722;2024-01-15T12:15:41;17.98;;;9.60;;
32172;SDS011;18679;45.190;5.722;2024-01-15T12:18:43;22.35;;;7.93;;
32172;SDS011;18679;45.190;5.722;2024-01-15T12:21:44;17.58;;;7.55;;
32172;SDS011;18679;45.190;5.722;2024-01-15T12:24:45;19.30;;;9.35;;
32172;SDS011;18679;45.190;5.722;2024-01-15T12:27:46;25.02;;;9.98;;
32172;SDS011;18679;45.190;5.722;2024-01-15T12:30:48;21.05;;;9.38;;
32172;SDS011;18679;45.190;5.722;2024-01-15T12:33:50;22.48;;;10.93;;
32172;SDS011;18679;45.190;5.722;2024-01-15T12:36:52;17.85;;;9.00;;
32172;SDS011;18679;45.190;5.722;2024-01-15T12:39:52;21.42;;;9.30;;
32172;SDS011;18679;45.190;5.722;2024-01-15T12:42:55;23.98;;;9.80;;
32172;SDS011;18679;45.190;5.722;2024-01-15T12:45:56;20.25;;;9.45;;
32172;SDS011;18679;45.190;5.722;2024-01-15T12:53:21;21.38;;;8.80;;
32172;SDS011;18679;45.190;5.722;2024-01-15T12:56:22;26.23;;;10.15;;
32172;SDS011;18679;45.190;5.722;2024-01-15T12:59:23;18.35;;;9.13;;
32172;SDS011;18679;45.190;5.722;2024-01-15T13:02:23;21.00;;;9.88;;
32172;SDS011;18679;45.190;5.722;2024-01-15T13:05:25;21.77;;;10.13;;
32172;SDS011;18679;45.190;5.722;2024-01-15T13:08:27;28.13;;;10.23;;
32172;SDS011;18679;45.190;5.722;2024-01-15T13:11:29;25.02;;;10.00;;
32172;SDS011;18679;45.190;5.722;2024-01-15T13:14:30;27.05;;;10.00;;
32172;SDS011;18679;45.190;5.722;2024-01-15T13:17:32;32.72;;;10.95;;
32172;SDS011;18679;45.190;5.722;2024-01-15T13:20:34;23.05;;;9.75;;
32172;SDS011;18679;45.190;5.722;2024-01-15T13:23:37;20.02;;;9.18;;
32172;SDS011;18679;45.190;5.722;2024-01-15T13:26:37;15.90;;;7.60;;
32172;SDS011;18679;45.190;5.722;2024-01-15T13:29:38;18.27;;;8.77;;
32172;SDS011;18679;45.190;5.722;2024-01-15T13:32:39;23.98;;;8.73;;
32172;SDS011;18679;45.190;5.722;2024-01-15T13:35:40;29.40;;;9.95;;
32172;SDS011;18679;45.190;5.722;2024-01-15T13:38:41;21.70;;;11.02;;
32172;SDS011;18679;45.190;5.722;2024-01-15T13:41:42;26.42;;;8.68;;
32172;SDS011;18679;45.190;5.722;2024-01-15T13:44:44;14.77;;;8.10;;
32172;SDS011;18679;45.190;5.722;2024-01-15T13:47:45;19.75;;;7.22;;
32172;SDS011;18679;45.190;5.722;2024-01-15T13:50:46;21.58;;;7.72;;
32172;SDS011;18679;45.190;5.722;2024-01-15T13:53:46;14.70;;;7.60;;
32172;SDS011;18679;45.190;5.722;2024-01-15T13:56:48;16.38;;;8.95;;
32172;SDS011;18679;45.190;5.722;2024-01-15T13:59:50;16.63;;;8.05;;
32172;SDS011;18679;45.190;5.722;2024-01-15T14:02:51;22.02;;;8.55;;
32172;SDS011;18679;45.190;5.722;2024-01-15T14:05:52;20.30;;;8.68;;
32172;SDS011;18679;45.190;5.722;2024-01-15T14:08:53;15.93;;;6.75;;
32172;SDS011;18679;45.190;5.722;2024-01-15T14:11:54;15.35;;;7.20;;
32172;SDS011;18679;45.190;5.722;2024-01-15T14:14:55;11.57;;;6.47;;
32172;SDS011;18679;45.190;5.722;2024-01-15T14:17:56;15.93;;;7.22;;
32172;SDS011;18679;45.190;5.722;2024-01-15T14:20:58;14.00;;;7.15;;
32172;SDS011;18679;45.190;5.722;2024-01-15T14:23:59;14.65;;;7.65;;
32172;SDS011;18679;45.190;5.722;2024-01-15T14:27:00;23.38;;;8.07;;
32172;SDS011;18679;45.190;5.722;2024-01-15T14:30:01;16.63;;;8.35;;
32172;SDS011;18679;45.190;5.722;2024-01-15T14:33:04;14.55;;;6.57;;
32172;SDS011;18679;45.190;5.722;2024-01-15T14:36:05;16.27;;;7.53;;
32172;SDS011;18679;45.190;5.722;2024-01-15T14:39:06;21.88;;;8.25;;
32172;SDS011;18679;45.190;5.722;2024-01-15T14:42:07;17.77;;;8.07;;
32172;SDS011;18679;45.190;5.722;2024-01-15T14:45:09;15.52;;;7.15;;
32172;SDS011;18679;45.190;5.722;2024-01-15T14:48:12;20.00;;;7.07;;
32172;SDS011;18679;45.190;5.722;2024-01-15T14:51:13;19.27;;;7.28;;
32172;SDS011;18679;45.190;5.722;2024-01-15T14:54:15;15.88;;;7.10;;
32172;SDS011;18679;45.190;5.722;2024-01-15T14:57:16;18.58;;;9.27;;
32172;SDS011;18679;45.190;5.722;2024-01-15T15:00:17;15.48;;;7.25;;
32172;SDS011;18679;45.190;5.722;2024-01-15T15:03:18;12.13;;;6.85;;
32172;SDS011;18679;45.190;5.722;2024-01-15T15:06:19;11.40;;;5.75;;
32172;SDS011;18679;45.190;5.722;2024-01-15T15:09:21;13.95;;;6.50;;
32172;SDS011;18679;45.190;5.722;2024-01-15T15:12:22;20.08;;;6.85;;
32172;SDS011;18679;45.190;5.722;2024-01-15T15:15:23;17.17;;;7.50;;
32172;SDS011;18679;45.190;5.722;2024-01-15T15:18:26;15.20;;;7.05;;
32172;SDS011;18679;45.190;5.722;2024-01-15T15:21:27;16.50;;;6.78;;
32172;SDS011;18679;45.190;5.722;2024-01-15T15:24:29;13.85;;;6.22;;
32172;SDS011;18679;45.190;5.722;2024-01-15T15:27:30;13.18;;;6.72;;
32172;SDS011;18679;45.190;5.722;2024-01-15T15:30:31;12.13;;;6.53;;
32172;SDS011;18679;45.190;5.722;2024-01-15T15:33:32;13.40;;;6.07;;
32172;SDS011;18679;45.190;5.722;2024-01-15T15:36:33;11.82;;;6.82;;
32172;SDS011;18679;45.190;5.722;2024-01-15T15:39:34;16.23;;;5.63;;
32172;SDS011;18679;45.190;5.722;2024-01-15T15:42:34;11.48;;;6.07;;
32172;SDS011;18679;45.190;5.722;2024-01-15T15:45:35;17.42;;;6.75;;
32172;SDS011;18679;45.190;5.722;2024-01-15T15:48:36;19.55;;;7.78;;
32172;SDS011;18679;45.190;5.722;2024-01-15T15:51:37;20.92;;;8.80;;
32172;SDS011;18679;45.190;5.722;2024-01-15T15:54:38;15.82;;;8.55;;
32172;SDS011;18679;45.190;5.722;2024-01-15T15:57:39;14.02;;;7.90;;
32172;SDS011;18679;45.190;5.722;2024-01-15T16:00:39;14.80;;;7.97;;
32172;SDS011;18679;45.190;5.722;2024-01-15T16:03:40;22.17;;;9.40;;
32172;SDS011;18679;45.190;5.722;2024-01-15T16:06:41;16.75;;;7.60;;
32172;SDS011;18679;45.190;5.722;2024-01-15T16:09:42;18.23;;;8.77;;
32172;SDS011;18679;45.190;5.722;2024-01-15T16:12:43;14.68;;;7.25;;
32172;SDS011;18679;45.190;5.722;2024-01-15T16:15:45;12.75;;;6.50;;
32172;SDS011;18679;45.190;5.722;2024-01-15T16:18:45;15.93;;;7.85;;
32172;SDS011;18679;45.190;5.722;2024-01-15T16:21:46;15.10;;;7.70;;
32172;SDS011;18679;45.190;5.722;2024-01-15T16:24:47;14.55;;;7.35;;
32172;SDS011;18679;45.190;5.722;2024-01-15T16:27:48;13.05;;;6.70;;
32172;SDS011;18679;45.190;5.722;2024-01-15T16:30:49;19.98;;;8.13;;
32172;SDS011;18679;45.190;5.722;2024-01-15T16:33:51;13.43;;;6.80;;
32172;SDS011;18679;45.190;5.722;2024-01-15T16:36:52;22.23;;;8.88;;
32172;SDS011;18679;45.190;5.722;2024-01-15T16:39:53;18.60;;;8.75;;
32172;SDS011;18679;45.190;5.722;2024-01-15T16:42:54;24.50;;;9.57;;
32172;SDS011;18679;45.190;5.722;2024-01-15T16:45:55;16.17;;;7.57;;
32172;SDS011;18679;45.190;5.722;2024-01-15T16:48:56;21.60;;;8.93;;
32172;SDS011;18679;45.190;5.722;2024-01-15T16:51:58;19.17;;;8.00;;
32172;SDS011;18679;45.190;5.722;2024-01-15T16:55:00;17.75;;;7.70;;
32172;SDS011;18679;45.190;5.722;2024-01-15T16:58:01;18.50;;;8.05;;
32172;SDS011;18679;45.190;5.722;2024-01-15T17:01:02;19.65;;;8.52;;
32172;SDS011;18679;45.190;5.722;2024-01-15T17:04:03;17.42;;;8.40;;
32172;SDS011;18679;45.190;5.722;2024-01-15T17:07:05;18.17;;;7.50;;
32172;SDS011;18679;45.190;5.722;2024-01-15T17:10:06;19.25;;;8.63;;
32172;SDS011;18679;45.190;5.722;2024-01-15T17:13:10;21.02;;;8.13;;
32172;SDS011;18679;45.190;5.722;2024-01-15T17:16:11;20.75;;;8.27;;
32172;SDS011;18679;45.190;5.722;2024-01-15T17:19:12;21.73;;;8.82;;
32172;SDS011;18679;45.190;5.722;2024-01-15T17:22:13;14.55;;;7.07;;
32172;SDS011;18679;45.190;5.722;2024-01-15T17:25:14;15.55;;;7.82;;
32172;SDS011;18679;45.190;5.722;2024-01-15T17:28:15;19.80;;;9.82;;
32172;SDS011;18679;45.190;5.722;2024-01-15T17:31:16;15.98;;;7.53;;
32172;SDS011;18679;45.190;5.722;2024-01-15T17:34:17;18.17;;;8.70;;
32172;SDS011;18679;45.190;5.722;2024-01-15T17:37:18;19.42;;;8.48;;
32172;SDS011;18679;45.190;5.722;2024-01-15T17:40:19;14.13;;;7.78;;
32172;SDS011;18679;45.190;5.722;2024-01-15T17:43:20;17.60;;;7.97;;
32172;SDS011;18679;45.190;5.722;2024-01-15T17:46:20;21.73;;;8.82;;
32172;SDS011;18679;45.190;5.722;2024-01-15T17:49:22;26.38;;;10.25;;
32172;SDS011;18679;45.190;5.722;2024-01-15T17:52:23;17.90;;;9.88;;
32172;SDS011;18679;45.190;5.722;2024-01-15T17:55:24;16.45;;;7.93;;
32172;SDS011;18679;45.190;5.722;2024-01-15T17:58:26;23.42;;;8.63;;
32172;SDS011;18679;45.190;5.722;2024-01-15T18:01:28;27.45;;;9.88;;
32172;SDS011;18679;45.190;5.722;2024-01-15T18:04:31;19.60;;;9.48;;